Terminal Aerodrome Forecast
Issued by NWS

Home | Current Version | Previous Version | Text Only | Print | Product List | Glossary On
Versions: 1 2 3 4 5 6 7 8 9 10 11 12 13 14 15 16 17 18 19 20 21 22 23 24 25 26 27 28 29 30 31 32 33 34 35
000
FTUS44 KBMX 220520
TAFASN
TAF
KASN 220520Z 2206/2306 00000KT P6SM SCT120
      TEMPO 2208/2212 3SM BR SCT002
     FM221500 23003KT P6SM SCT040
     FM222000 22007KT P6SM VCTS BKN040CB BKN100=

USA.gov is the U.S. government's official web portal to all federal, state and local government web resources and services.